Time;durP1;ratioP1;P1;durP2;ratioP2;P2;SDS_P1;SDS_P2;PMS_P1;PMS_P2;Temp;Humidity;BMP_temperature;BMP_pressure;BME280_temperature;BME280_humidity;BME280_pressure;Samples;Min_cycle;Max_cycle;Signal;HPM_P1;HPM_P2
2022/12/02 00:01:43;;;;;;;23.52;12.88;;;;;;;-144.32;100.00;68061.97;10460662;28;20101;-87
2022/12/02 00:06:44;;;;;;;27.58;14.45;;;;;;;-144.32;100.00;68061.97;10443245;28;20045;-85
2022/12/02 00:11:46;;;;;;;25.92;14.00;;;;;;;-144.32;100.00;68061.97;10422268;28;20061;-84
2022/12/02 00:16:48;;;;;;;28.00;14.35;;;;;;;-144.32;100.00;68061.97;10440628;28;20136;-84
2022/12/02 00:21:50;;;;;;;27.38;13.77;;;;;;;-144.32;100.00;68061.97;10460563;28;20052;-86
2022/12/02 00:26:51;;;;;;;27.58;13.68;;;;;;;-144.32;100.00;68061.97;10445008;28;20060;-85
2022/12/02 00:31:52;;;;;;;31.10;15.00;;;;;;;-144.32;100.00;68061.97;10596964;22;20032;-81
2022/12/02 00:36:54;;;;;;;28.67;14.93;;;;;;;-144.32;100.00;68061.97;10451520;28;20052;-84
2022/12/02 00:41:56;;;;;;;27.20;14.57;;;;;;;-144.32;100.00;68061.97;10459025;28;20029;-81
2022/12/02 00:46:56;;;;;;;25.58;13.15;;;;;;;-144.32;100.00;68061.97;10483830;28;20037;-84
2022/12/02 00:51:59;;;;;;;26.15;12.93;;;;;;;-144.32;100.00;68061.97;10481494;28;20041;-82
2022/12/02 00:57:00;;;;;;;24.48;13.57;;;;;;;-144.32;100.00;68061.97;10467124;28;20094;-84
2022/12/02 01:02:04;;;;;;;28.17;14.68;;;;;;;-144.32;100.00;68061.97;10482979;28;20050;-83
2022/12/02 01:07:05;;;;;;;26.98;13.75;;;;;;;-144.32;100.00;68061.97;10480786;28;20052;-81
2022/12/02 01:12:07;;;;;;;26.33;13.93;;;;;;;-144.32;100.00;68061.97;10467718;28;20037;-82
2022/12/02 01:17:07;;;;;;;25.88;13.88;;;;;;;-144.32;100.00;68061.97;10437551;28;20123;-82
2022/12/02 01:22:08;;;;;;;24.77;12.90;;;;;;;-144.32;100.00;68061.97;10440545;28;20051;-84
2022/12/02 01:27:08;;;;;;;22.90;12.38;;;;;;;-144.32;100.00;68061.97;10447366;28;20109;-81
2022/12/02 01:32:11;;;;;;;24.17;12.93;;;;;;;-144.32;100.00;68061.97;10469001;28;20041;-82
2022/12/02 01:37:12;;;;;;;22.92;11.88;;;;;;;-144.32;100.00;68061.97;10466096;28;20044;-80
2022/12/02 01:42:12;;;;;;;24.88;14.00;;;;;;;-144.32;100.00;68061.97;10449141;28;20040;-85
2022/12/02 01:47:13;;;;;;;25.42;12.18;;;;;;;-144.32;100.00;68061.97;10448960;28;20072;-85
2022/12/02 01:52:14;;;;;;;25.38;12.70;;;;;;;-144.32;100.00;68061.97;10465319;28;20052;-86
2022/12/02 01:57:15;;;;;;;24.05;11.68;;;;;;;-144.32;100.00;68061.97;10442592;28;20052;-85
2022/12/02 02:02:27;;;;;;;21.45;12.00;;;;;;;-144.32;100.00;68061.97;10438050;28;20144;-83
2022/12/02 02:07:30;;;;;;;25.27;12.10;;;;;;;-144.32;100.00;68061.97;10445930;28;20049;-85
2022/12/02 02:12:31;;;;;;;23.23;11.88;;;;;;;-144.32;100.00;68061.97;10446429;28;20037;-87
2022/12/02 02:17:32;;;;;;;26.15;13.68;;;;;;;-144.32;100.00;68061.97;10444663;28;20067;-87
2022/12/02 02:22:51;;;;;;;24.63;12.50;;;;;;;-144.32;100.00;68061.97;10461342;28;20042;-84
2022/12/02 02:27:58;;;;;;;25.25;13.40;;;;;;;-144.32;100.00;68061.97;10454048;28;20041;-86
2022/12/02 02:33:04;;;;;;;24.67;12.45;;;;;;;-144.32;100.00;68061.97;10433092;28;20037;-89
2022/12/02 02:38:13;;;;;;;28.60;12.73;;;;;;;-144.32;100.00;68061.97;10445418;28;20056;-85
2022/12/02 02:43:16;;;;;;;24.00;12.75;;;;;;;-144.32;100.00;68061.97;10435606;28;21751;-82
2022/12/02 02:48:20;;;;;;;27.08;12.75;;;;;;;-144.32;100.00;68061.97;10411654;28;20575;-82
2022/12/02 02:53:25;;;;;;;23.02;12.27;;;;;;;-144.32;100.00;68061.97;10431877;28;20119;-81
2022/12/02 02:58:28;;;;;;;26.70;13.63;;;;;;;-144.32;100.00;68061.97;10434537;28;20056;-85
2022/12/02 03:03:33;;;;;;;29.27;13.82;;;;;;;-144.32;100.00;68061.97;10478026;28;20032;-81
2022/12/02 03:08:37;;;;;;;26.35;13.18;;;;;;;-144.32;100.00;68061.97;10452713;28;20096;-84
2022/12/02 03:13:39;;;;;;;27.30;14.88;;;;;;;-144.32;100.00;68061.97;10432144;28;20048;-84
2022/12/02 03:18:42;;;;;;;26.90;12.87;;;;;;;-144.32;100.00;68061.97;10432861;28;20061;-85
2022/12/02 03:23:45;;;;;;;28.35;13.75;;;;;;;-144.32;100.00;68061.97;10435900;28;20051;-85
2022/12/02 03:28:47;;;;;;;24.05;12.32;;;;;;;-144.32;100.00;68061.97;10429110;28;20858;-85
2022/12/02 03:33:49;;;;;;;28.40;12.98;;;;;;;-144.32;100.00;68061.97;10452581;28;20445;-84
2022/12/02 03:38:50;;;;;;;28.55;14.38;;;;;;;-144.32;100.00;68061.97;10445118;28;20046;-83
2022/12/02 03:43:51;;;;;;;26.95;13.45;;;;;;;-144.32;100.00;68061.97;10459440;28;20499;-83
2022/12/02 03:48:54;;;;;;;27.33;13.32;;;;;;;-144.32;100.00;68061.97;10468420;28;20030;-84
2022/12/02 03:53:54;;;;;;;27.27;13.05;;;;;;;-144.32;100.00;68061.97;10479814;28;20040;-84
2022/12/02 03:58:56;;;;;;;28.77;13.88;;;;;;;-144.32;100.00;68061.97;10447335;28;20140;-84
2022/12/02 04:03:58;;;;;;;29.73;12.70;;;;;;;-144.32;100.00;68061.97;10443383;28;20105;-86
2022/12/02 04:08:59;;;;;;;;;;;;;;;-144.32;100.00;68061.97;10449266;28;20052;-83
2022/12/02 04:14:01;;;;;;;28.55;13.18;;;;;;;-144.32;100.00;68061.97;10877114;22;19908;-85
2022/12/02 04:19:02;;;;;;;23.33;12.98;;;;;;;-144.32;100.00;68061.97;10463551;28;20049;-84
2022/12/02 04:24:06;;;;;;;28.52;13.07;;;;;;;-144.32;100.00;68061.97;10451587;28;20046;-84
2022/12/02 04:29:08;;;;;;;25.42;13.02;;;;;;;-144.32;100.00;68061.97;10404965;28;20137;-85
2022/12/02 04:34:09;;;;;;;28.10;13.75;;;;;;;-144.32;100.00;68061.97;10425896;28;20056;-85
2022/12/02 04:39:09;;;;;;;26.20;12.80;;;;;;;-144.32;100.00;68061.97;10441536;28;20038;-83
2022/12/02 04:44:10;;;;;;;29.10;13.18;;;;;;;-144.32;100.00;68061.97;10441945;28;20101;-83
2022/12/02 04:49:11;;;;;;;24.13;12.38;;;;;;;-144.32;100.00;68061.97;10436061;28;20022;-83
2022/12/02 04:54:14;;;;;;;23.80;12.07;;;;;;;-144.32;100.00;68061.97;10417766;28;20080;-84
2022/12/02 04:59:15;;;;;;;26.83;12.70;;;;;;;-144.32;100.00;68061.97;10380234;28;20057;-85
2022/12/02 05:04:16;;;;;;;26.83;12.25;;;;;;;-144.32;100.00;68061.97;10412823;28;20049;-83
2022/12/02 05:09:17;;;;;;;25.40;12.57;;;;;;;-144.32;100.00;68061.97;10428256;28;20041;-82
2022/12/02 05:14:18;;;;;;;22.48;12.50;;;;;;;-144.32;100.00;68061.97;10449345;28;20113;-81
2022/12/02 05:19:19;;;;;;;23.23;11.98;;;;;;;-144.32;100.00;68061.97;10452286;28;20029;-82
2022/12/02 05:24:19;;;;;;;22.98;11.45;;;;;;;-144.32;100.00;68061.97;10452382;28;20088;-81
2022/12/02 05:34:52;;;;;;;24.40;12.55;;;;;;;-144.32;100.00;68061.97;10356220;28;20042;-83
2022/12/02 05:39:53;;;;;;;27.15;11.30;;;;;;;-144.32;100.00;68061.97;10321503;28;20043;-84
2022/12/02 05:44:58;;;;;;;23.30;11.63;;;;;;;-144.32;100.00;68061.97;10333701;28;20051;-85
2022/12/02 05:49:59;;;;;;;20.55;10.57;;;;;;;-144.32;100.00;68061.97;10330790;28;20574;-85
2022/12/02 05:55:06;;;;;;;19.95;10.68;;;;;;;-144.32;100.00;68061.97;10316603;28;20047;-84
2022/12/02 06:00:08;;;;;;;21.83;10.80;;;;;;;-144.32;100.00;68061.97;10328920;28;20057;-82
2022/12/02 06:05:41;;;;;;;22.65;10.80;;;;;;;-144.32;100.00;68061.97;10327958;28;20063;-83
2022/12/02 06:10:56;;;;;;;18.38;10.73;;;;;;;-144.32;100.00;68061.97;10355491;28;20154;-83
2022/12/02 06:16:00;;;;;;;18.70;10.38;;;;;;;-144.32;100.00;68061.97;10321690;28;20065;-83
2022/12/02 06:21:03;;;;;;;21.17;11.05;;;;;;;-144.32;100.00;68061.97;10305605;28;20093;-84
2022/12/02 06:26:15;;;;;;;18.15;10.27;;;;;;;-144.32;100.00;68061.97;10338489;28;20046;-84
2022/12/02 06:31:24;;;;;;;20.38;10.75;;;;;;;-144.32;100.00;68061.97;10360364;28;20059;-83
2022/12/02 06:36:33;;;;;;;19.58;10.02;;;;;;;-144.32;100.00;68061.97;10358624;28;20062;-83
2022/12/02 06:41:37;;;;;;;19.33;10.45;;;;;;;-144.32;100.00;68061.97;10338516;28;20120;-86
2022/12/02 06:46:42;;;;;;;21.45;10.63;;;;;;;-144.32;100.00;68061.97;10334649;28;20066;-82
2022/12/02 06:51:44;;;;;;;20.67;10.07;;;;;;;-144.32;100.00;68061.97;10338667;28;20070;-81
2022/12/02 06:56:48;;;;;;;22.53;10.43;;;;;;;-144.32;100.00;68061.97;10381319;28;20129;-81
2022/12/02 07:01:55;;;;;;;20.85;9.95;;;;;;;-144.32;100.00;68061.97;10354163;28;20344;-83
2022/12/02 07:07:11;;;;;;;20.60;9.65;;;;;;;-144.32;100.00;68061.97;10358350;28;20090;-83
2022/12/02 07:12:20;;;;;;;19.25;11.15;;;;;;;-144.32;100.00;68061.97;10357449;28;20058;-82
2022/12/02 07:17:31;;;;;;;19.42;11.43;;;;;;;-144.32;100.00;68061.97;10354062;28;20050;-79
2022/12/02 07:22:36;;;;;;;21.63;11.10;;;;;;;-144.32;100.00;68061.97;10347304;28;20035;-79
2022/12/02 07:27:39;;;;;;;17.92;9.57;;;;;;;-144.32;100.00;68061.97;10352858;28;20097;-85
2022/12/02 07:32:41;;;;;;;17.95;9.63;;;;;;;-144.32;100.00;68061.97;10361450;28;20069;-81
2022/12/02 07:37:42;;;;;;;22.20;11.38;;;;;;;-144.32;100.00;68061.97;10347062;28;20046;-86
2022/12/02 07:42:44;;;;;;;18.80;10.23;;;;;;;-144.32;100.00;68061.97;10341532;28;20030;-80
2022/12/02 07:47:45;;;;;;;17.52;9.32;;;;;;;-144.32;100.00;68061.97;10337506;28;20050;-86
2022/12/02 07:52:46;;;;;;;22.63;9.93;;;;;;;-144.32;100.00;68061.97;10340674;28;20141;-85
2022/12/02 07:57:46;;;;;;;22.83;10.80;;;;;;;-144.32;100.00;68061.97;10346003;28;20022;-81
2022/12/02 08:02:47;;;;;;;22.00;11.45;;;;;;;-144.32;100.00;68061.97;10357181;28;20050;-81
2022/12/02 08:07:49;;;;;;;19.13;10.10;;;;;;;-144.32;100.00;68061.97;10337118;28;20042;-83
2022/12/02 08:12:50;;;;;;;17.27;9.88;;;;;;;-144.32;100.00;68061.97;10323452;28;20066;-84
2022/12/02 08:17:50;;;;;;;23.92;10.68;;;;;;;-144.32;100.00;68061.97;10306977;28;20074;-83
2022/12/02 08:22:52;;;;;;;15.93;9.18;;;;;;;-144.32;100.00;68061.97;10315601;28;20050;-85
2022/12/02 08:27:53;;;;;;;19.67;10.63;;;;;;;-144.32;100.00;68061.97;10310749;28;20049;-84
2022/12/02 08:32:53;;;;;;;20.70;10.57;;;;;;;-144.32;100.00;68061.97;10314789;28;20050;-84
2022/12/02 08:37:55;;;;;;;22.48;10.63;;;;;;;-144.32;100.00;68061.97;10325933;28;20407;-84
2022/12/02 08:42:55;;;;;;;23.42;12.73;;;;;;;-144.32;100.00;68061.97;10333867;28;20087;-81
2022/12/02 08:47:56;;;;;;;21.13;11.10;;;;;;;-144.32;100.00;68061.97;10323775;28;20041;-85
2022/12/02 08:52:56;;;;;;;27.48;12.38;;;;;;;-144.32;100.00;68061.97;10316850;28;20046;-83
2022/12/02 08:57:57;;;;;;;23.13;11.43;;;;;;;-144.32;100.00;68061.97;10307826;28;20038;-83
2022/12/02 09:02:58;;;;;;;28.73;14.07;;;;;;;-144.32;100.00;68061.97;10324451;28;20054;-83
2022/12/02 09:07:59;;;;;;;24.92;11.85;;;;;;;-144.32;100.00;68061.97;10319532;28;20046;-83
2022/12/02 09:12:59;;;;;;;27.75;13.50;;;;;;;-144.32;100.00;68061.97;10315611;28;20046;-81
2022/12/02 09:18:00;;;;;;;35.95;15.45;;;;;;;-144.32;100.00;68061.97;10309054;28;20482;-84
2022/12/02 09:23:00;;;;;;;45.25;17.95;;;;;;;-144.32;100.00;68061.97;10312736;28;20125;-82
2022/12/02 09:28:01;;;;;;;45.53;20.13;;;;;;;-144.32;100.00;68061.97;10317700;28;20049;-81
2022/12/02 09:33:01;;;;;;;34.20;16.45;;;;;;;-144.32;100.00;68061.97;10331819;28;20035;-83
2022/12/02 09:38:03;;;;;;;45.03;19.83;;;;;;;-144.32;100.00;68061.97;10314292;28;20050;-84
2022/12/02 09:43:04;;;;;;;44.80;20.83;;;;;;;-144.32;100.00;68061.97;10318186;28;20410;-82
2022/12/02 09:48:06;;;;;;;47.08;20.35;;;;;;;-144.32;100.00;68061.97;10332809;28;20122;-82
2022/12/02 09:53:09;;;;;;;45.83;19.67;;;;;;;-144.32;100.00;68061.97;10341007;28;20038;-81
2022/12/02 09:58:20;;;;;;;43.40;19.20;;;;;;;-144.32;100.00;68061.97;10339687;28;20043;-85
2022/12/02 10:03:27;;;;;;;44.47;20.40;;;;;;;-144.32;100.00;68061.97;10335469;28;20125;-84
2022/12/02 10:08:28;;;;;;;44.15;19.85;;;;;;;-144.32;100.00;68061.97;10354525;28;20042;-83
2022/12/02 10:13:36;;;;;;;48.33;21.25;;;;;;;-144.32;100.00;68061.97;10338280;28;20050;-83
2022/12/02 10:18:40;;;;;;;49.75;20.88;;;;;;;-144.32;100.00;68061.97;10333831;28;20046;-82
2022/12/02 10:23:52;;;;;;;;;;;;;;;-144.32;100.00;68061.97;10368990;28;20057;-87
2022/12/02 10:29:05;;;;;;;51.55;21.92;;;;;;;-144.32;100.00;68061.97;10323308;28;19929;-87
2022/12/02 10:34:06;;;;;;;48.00;20.90;;;;;;;-144.32;100.00;68061.97;10349155;28;20086;-84
2022/12/02 10:39:26;;;;;;;51.30;22.10;;;;;;;-144.32;100.00;68061.97;10366191;28;20039;-85
2022/12/02 10:44:27;;;;;;;49.15;19.40;;;;;;;-144.32;100.00;68061.97;10348326;28;20042;-86
2022/12/02 10:49:33;;;;;;;50.08;21.05;;;;;;;-144.32;100.00;68061.97;10354710;28;20121;-88
2022/12/02 10:54:38;;;;;;;49.80;20.77;;;;;;;-144.32;100.00;68061.97;10333132;28;20078;-86
2022/12/02 10:59:39;;;;;;;51.22;20.90;;;;;;;-144.32;100.00;68061.97;10386217;28;20045;-84
2022/12/02 11:04:39;;;;;;;59.22;22.67;;;;;;;-144.32;100.00;68061.97;10446009;28;20069;-85
2022/12/02 11:09:50;;;;;;;51.40;21.42;;;;;;;-144.32;100.00;68061.97;10403532;28;20087;-80
2022/12/02 11:14:53;;;;;;;55.40;22.60;;;;;;;-144.32;100.00;68061.97;10418266;28;20045;-82
2022/12/02 11:20:38;;;;;;;51.13;20.23;;;;;;;-144.32;100.00;68061.97;10409263;28;20057;-81
2022/12/02 11:25:42;;;;;;;53.03;20.87;;;;;;;-144.32;100.00;68061.97;10399461;28;20057;-82
2022/12/02 11:31:07;;;;;;;49.28;21.38;;;;;;;-144.32;100.00;68061.97;10405736;28;20284;-80
2022/12/02 11:36:18;;;;;;;54.53;22.63;;;;;;;-144.32;100.00;68061.97;10408598;28;20064;-82
2022/12/02 11:41:28;;;;;;;48.42;22.15;;;;;;;-144.32;100.00;68061.97;10423366;28;20053;-82
2022/12/02 11:46:39;;;;;;;55.25;24.48;;;;;;;-144.32;100.00;68061.97;10412419;28;20049;-78
2022/12/02 11:51:40;;;;;;;50.63;22.02;;;;;;;-144.32;100.00;68061.97;10410686;28;20033;-80
2022/12/02 11:56:43;;;;;;;49.80;20.42;;;;;;;-144.32;100.00;68061.97;10404936;28;20042;-82
2022/12/02 12:01:44;;;;;;;50.03;20.17;;;;;;;-144.32;100.00;68061.97;10408897;28;20049;-81
2022/12/02 12:06:56;;;;;;;48.58;20.20;;;;;;;-144.32;100.00;68061.97;10410181;28;20196;-79
2022/12/02 12:12:17;;;;;;;48.72;18.73;;;;;;;-144.32;100.00;68061.97;10417834;28;20045;-81
2022/12/02 12:17:31;;;;;;;46.05;20.73;;;;;;;-144.32;100.00;68061.97;10426308;28;20061;-82
2022/12/02 12:22:34;;;;;;;48.08;19.80;;;;;;;-144.32;100.00;68061.97;10414296;28;20041;-84
2022/12/02 12:27:37;;;;;;;53.97;22.10;;;;;;;-144.32;100.00;68061.97;10423087;28;20045;-82
2022/12/02 12:32:38;;;;;;;50.72;20.65;;;;;;;-144.32;100.00;68061.97;10412497;28;20045;-85
2022/12/02 12:37:38;;;;;;;54.80;22.27;;;;;;;-144.32;100.00;68061.97;10411865;28;20045;-80
2022/12/02 12:42:47;;;;;;;55.90;22.33;;;;;;;-144.32;100.00;68061.97;10407306;28;20075;-84
2022/12/02 12:47:48;;;;;;;54.05;22.27;;;;;;;-144.32;100.00;68061.97;10425328;28;20485;-81
2022/12/02 12:52:49;;;;;;;53.03;22.00;;;;;;;-144.32;100.00;68061.97;10413804;28;20048;-81
2022/12/02 12:57:51;;;;;;;53.88;21.15;;;;;;;-144.32;100.00;68061.97;10411882;28;20107;-82
2022/12/02 13:02:52;;;;;;;52.20;22.08;;;;;;;-144.32;100.00;68061.97;10427495;28;20114;-82
2022/12/02 13:07:52;;;;;;;51.47;22.00;;;;;;;-144.32;100.00;68061.97;10452001;28;20099;-80
2022/12/02 13:12:53;;;;;;;50.45;21.13;;;;;;;-144.32;100.00;68061.97;10437997;28;20058;-82
2022/12/02 13:17:53;;;;;;;44.80;21.48;;;;;;;-144.32;100.00;68061.97;10419320;28;20038;-85
2022/12/02 13:22:55;;;;;;;49.50;21.50;;;;;;;-144.32;100.00;68061.97;10430913;28;20172;-80
2022/12/02 13:27:55;;;;;;;43.53;19.95;;;;;;;-144.32;100.00;68061.97;10444160;28;20026;-81
2022/12/02 13:32:57;;;;;;;49.30;20.95;;;;;;;-144.32;100.00;68061.97;10458002;28;20086;-83
2022/12/02 13:37:57;;;;;;;50.20;20.50;;;;;;;-144.32;100.00;68061.97;10477188;28;20022;-79
2022/12/02 13:42:58;;;;;;;42.42;19.23;;;;;;;-144.32;100.00;68061.97;10453067;28;20033;-79
2022/12/02 13:48:00;;;;;;;46.53;21.70;;;;;;;-144.32;100.00;68061.97;10446957;28;20436;-83
2022/12/02 13:53:01;;;;;;;47.67;19.48;;;;;;;-144.32;100.00;68061.97;10462167;28;20037;-78
2022/12/02 13:58:01;;;;;;;48.15;20.08;;;;;;;-144.32;100.00;68061.97;10479340;28;20056;-79
2022/12/02 14:03:02;;;;;;;46.63;20.65;;;;;;;-144.32;100.00;68061.97;10467093;28;20080;-80
2022/12/02 14:08:06;;;;;;;41.30;18.77;;;;;;;-144.32;100.00;68061.97;10454096;28;20038;-80
2022/12/02 14:13:06;;;;;;;46.88;19.92;;;;;;;-144.32;100.00;68061.97;10451987;28;20086;-81
2022/12/02 14:18:07;;;;;;;44.67;19.63;;;;;;;-144.32;100.00;68061.97;10457839;28;20049;-79
2022/12/02 14:23:10;;;;;;;38.65;18.98;;;;;;;-144.32;100.00;68061.97;10451481;28;20049;-80
2022/12/02 14:28:11;;;;;;;42.33;18.20;;;;;;;-144.32;100.00;68061.97;10448411;28;20057;-84
2022/12/02 14:33:13;;;;;;;45.30;18.58;;;;;;;-144.32;100.00;68061.97;10436952;28;20076;-82
2022/12/02 14:38:14;;;;;;;44.90;20.58;;;;;;;-144.32;100.00;68061.97;10442238;28;20038;-82
2022/12/02 14:43:15;;;;;;;45.75;20.00;;;;;;;-144.32;100.00;68061.97;10433273;28;20029;-81
2022/12/02 14:48:18;;;;;;;39.00;17.77;;;;;;;-144.32;100.00;68061.97;10437837;28;20084;-78
2022/12/02 14:53:25;;;;;;;36.20;18.05;;;;;;;-144.32;100.00;68061.97;10441156;28;20088;-83
2022/12/02 14:58:26;;;;;;;45.30;18.95;;;;;;;-144.32;100.00;68061.97;10457638;28;20112;-79
2022/12/02 15:03:26;;;;;;;43.40;19.13;;;;;;;-144.32;100.00;68061.97;10704286;22;20147;-82
2022/12/02 15:08:27;;;;;;;39.63;18.05;;;;;;;-144.32;100.00;68061.97;10486378;28;20052;-81
2022/12/02 15:13:27;;;;;;;45.95;19.55;;;;;;;-144.32;100.00;68061.97;10481548;28;20719;-79
2022/12/02 15:18:28;;;;;;;38.95;17.50;;;;;;;-144.32;100.00;68061.97;10499509;28;20048;-80
2022/12/02 15:23:28;;;;;;;41.03;17.48;;;;;;;-144.32;100.00;68061.97;10446092;28;20489;-70
2022/12/02 15:28:29;;;;;;;41.63;17.73;;;;;;;-144.32;100.00;68061.97;10491455;28;20016;-82
2022/12/02 15:33:31;;;;;;;47.15;21.02;;;;;;;-144.32;100.00;68061.97;10485629;28;20048;-80
2022/12/02 15:38:32;;;;;;;44.58;19.75;;;;;;;-144.32;100.00;68061.97;10465444;28;20064;-80
2022/12/02 15:43:34;;;;;;;46.92;20.42;;;;;;;-144.32;100.00;68061.97;10461441;28;20139;-87
2022/12/02 15:48:34;;;;;;;42.67;19.08;;;;;;;-144.32;100.00;68061.97;10455790;28;20516;-85
2022/12/02 15:53:35;;;;;;;42.67;18.90;;;;;;;-144.32;100.00;68061.97;10470677;28;20132;-83
2022/12/02 15:58:35;;;;;;;38.30;18.25;;;;;;;-144.32;100.00;68061.97;10561158;22;20044;-83
2022/12/02 16:03:36;;;;;;;42.70;18.65;;;;;;;-144.32;100.00;68061.97;10452403;28;20056;-79
2022/12/02 16:08:37;;;;;;;44.50;19.95;;;;;;;-144.32;100.00;68061.97;10454241;28;20033;-81
2022/12/02 16:13:37;;;;;;;36.75;17.70;;;;;;;-144.32;100.00;68061.97;10460589;28;20537;-83
2022/12/02 16:18:38;;;;;;;41.95;18.33;;;;;;;-144.32;100.00;68061.97;10471793;28;20089;-84
2022/12/02 16:23:38;;;;;;;36.00;18.15;;;;;;;-144.32;100.00;68061.97;10490940;28;20052;-81
2022/12/02 16:28:41;;;;;;;43.65;17.60;;;;;;;-144.32;100.00;68061.97;10477681;28;20206;-85
2022/12/02 16:33:42;;;;;;;43.97;19.20;;;;;;;-144.32;100.00;68061.97;10461917;28;20123;-86
2022/12/02 16:38:42;;;;;;;39.85;18.50;;;;;;;-144.32;100.00;68061.97;10475021;28;20061;-83
2022/12/02 16:43:43;;;;;;;40.35;18.75;;;;;;;-144.32;100.00;68061.97;10468533;28;20037;-80
2022/12/02 16:53:45;;;;;;;47.20;20.08;;;;;;;-144.32;100.00;68061.97;10445339;22;20070;-80
2022/12/02 16:58:46;;;;;;;43.80;20.10;;;;;;;-144.32;100.00;68061.97;10474056;28;20045;-79
2022/12/02 17:03:46;;;;;;;48.08;20.85;;;;;;;-144.32;100.00;68061.97;10479221;28;20024;-80
2022/12/02 17:08:47;;;;;;;51.35;20.55;;;;;;;-144.32;100.00;68061.97;10475982;28;20171;-84
2022/12/02 17:13:47;;;;;;;49.33;21.85;;;;;;;-144.32;100.00;68061.97;10455574;28;20139;-84
2022/12/02 17:18:48;;;;;;;44.22;19.40;;;;;;;-144.32;100.00;68061.97;10466410;28;20516;-81
2022/12/02 17:23:50;;;;;;;51.67;21.63;;;;;;;-144.32;100.00;68061.97;10461683;28;20109;-81
2022/12/02 17:28:51;;;;;;;43.72;20.48;;;;;;;-144.32;100.00;68061.97;10481604;28;20037;-80
2022/12/02 17:33:51;;;;;;;43.90;19.80;;;;;;;-144.32;100.00;68061.97;10483094;28;20020;-79
2022/12/02 17:38:52;;;;;;;47.35;20.10;;;;;;;-144.32;100.00;68061.97;10475583;28;20588;-82
2022/12/02 17:43:54;;;;;;;49.05;21.77;;;;;;;-144.32;100.00;68061.97;10461662;28;20026;-79
2022/12/02 17:48:54;;;;;;;49.40;21.92;;;;;;;-144.32;100.00;68061.97;10477479;28;20045;-83
2022/12/02 17:53:55;;;;;;;44.83;20.40;;;;;;;-144.32;100.00;68061.97;10462827;28;20045;-81
2022/12/02 17:58:56;;;;;;;38.17;19.10;;;;;;;-144.32;100.00;68061.97;10483463;28;20056;-81
2022/12/02 18:03:58;;;;;;;47.90;21.88;;;;;;;-144.32;100.00;68061.97;10464204;28;20068;-84
2022/12/02 18:09:01;;;;;;;46.85;20.85;;;;;;;-144.32;100.00;68061.97;10477781;28;20256;-82
2022/12/02 18:14:02;;;;;;;50.58;21.55;;;;;;;-144.32;100.00;68061.97;10482733;28;20044;-84
2022/12/02 18:19:03;;;;;;;43.95;20.17;;;;;;;-144.32;100.00;68061.97;10478132;28;20040;-82
2022/12/02 18:24:05;;;;;;;45.78;19.75;;;;;;;-144.32;100.00;68061.97;10470751;28;20048;-80
2022/12/02 18:29:05;;;;;;;50.40;24.70;;;;;;;-144.32;100.00;68061.97;10454591;28;20706;-83
2022/12/02 18:34:06;;;;;;;54.38;25.27;;;;;;;-144.32;100.00;68061.97;10433441;28;20190;-81
2022/12/02 18:39:07;;;;;;;54.85;22.45;;;;;;;-144.32;100.00;68061.97;10432995;28;20045;-83
2022/12/02 18:44:08;;;;;;;50.60;20.30;;;;;;;-144.32;100.00;68061.97;10435048;28;20071;-81
2022/12/02 18:49:08;;;;;;;52.72;21.38;;;;;;;-144.32;100.00;68061.97;10434063;28;20533;-81
2022/12/02 18:54:11;;;;;;;51.90;22.65;;;;;;;-144.32;100.00;68061.97;10442125;28;20049;-85
2022/12/02 18:59:12;;;;;;;58.28;23.65;;;;;;;-144.32;100.00;68061.97;10439424;28;20049;-84
2022/12/02 19:04:15;;;;;;;58.55;22.33;;;;;;;-144.32;100.00;68061.97;10427623;28;20052;-82
2022/12/02 19:09:16;;;;;;;53.47;22.38;;;;;;;-144.32;100.00;68061.97;10432492;28;20052;-83
2022/12/02 19:14:16;;;;;;;56.83;23.40;;;;;;;-144.32;100.00;68061.97;10425978;28;20045;-83
2022/12/02 19:19:17;;;;;;;51.70;22.83;;;;;;;-144.32;100.00;68061.97;10438043;28;20101;-80
2022/12/02 19:24:18;;;;;;;62.17;24.27;;;;;;;-144.32;100.00;68061.97;10453942;28;20132;-84
2022/12/02 19:29:18;;;;;;;58.08;22.98;;;;;;;-144.32;100.00;68061.97;10434397;28;20045;-81
2022/12/02 19:34:19;;;;;;;63.00;24.55;;;;;;;-144.32;100.00;68061.97;10437726;28;20516;-81
2022/12/02 19:39:20;;;;;;;59.22;22.92;;;;;;;-144.32;100.00;68061.97;10428937;28;20076;-79
2022/12/02 19:44:20;;;;;;;58.63;20.92;;;;;;;-144.32;100.00;68061.97;10445630;28;20059;-83
2022/12/02 19:49:21;;;;;;;58.33;22.95;;;;;;;-144.32;100.00;68061.97;10422612;28;20152;-86
2022/12/02 19:54:21;;;;;;;58.47;22.65;;;;;;;-144.32;100.00;68061.97;10438939;28;20052;-85
2022/12/02 19:59:22;;;;;;;59.60;23.08;;;;;;;-144.32;100.00;68061.97;10457429;28;20033;-79
2022/12/02 20:04:22;;;;;;;64.13;25.38;;;;;;;-144.32;100.00;68061.97;10479679;28;20072;-77
2022/12/02 20:09:25;;;;;;;60.10;23.35;;;;;;;-144.32;100.00;68061.97;10484398;28;20029;-79
2022/12/02 20:14:26;;;;;;;53.47;22.03;;;;;;;-144.32;100.00;68061.97;10465514;28;20046;-79
2022/12/02 20:19:27;;;;;;;53.15;19.35;;;;;;;-144.32;100.00;68061.97;10436122;28;20499;-80
2022/12/02 20:24:29;;;;;;;54.00;23.67;;;;;;;-144.32;100.00;68061.97;10443548;28;20040;-80
2022/12/02 20:29:29;;;;;;;61.10;24.13;;;;;;;-144.32;100.00;68061.97;10489724;28;20044;-79
2022/12/02 20:34:30;;;;;;;59.33;23.67;;;;;;;-144.32;100.00;68061.97;10483733;28;20049;-78
2022/12/02 20:39:31;;;;;;;58.10;23.08;;;;;;;-144.32;100.00;68061.97;10519406;22;20069;-82
2022/12/02 20:44:31;;;;;;;60.95;22.73;;;;;;;-144.32;100.00;68061.97;10455494;28;20492;-84
2022/12/02 20:49:32;;;;;;;54.55;21.00;;;;;;;-144.32;100.00;68061.97;10444098;28;20033;-83
2022/12/02 20:54:32;;;;;;;61.40;22.63;;;;;;;-144.32;100.00;68061.97;10442678;28;20493;-84
2022/12/02 20:59:33;;;;;;;54.97;21.73;;;;;;;-144.32;100.00;68061.97;10529474;22;20029;-86
2022/12/02 21:04:33;;;;;;;51.72;20.77;;;;;;;-144.32;100.00;68061.97;10608009;22;20044;-87
2022/12/02 21:09:34;;;;;;;58.38;22.45;;;;;;;-144.32;100.00;68061.97;10492334;28;20072;-86
2022/12/02 21:14:34;;;;;;;54.95;21.15;;;;;;;-144.32;100.00;68061.97;10488259;28;20049;-86
2022/12/02 21:19:35;;;;;;;52.40;20.50;;;;;;;-144.32;100.00;68061.97;10483517;28;20033;-83
2022/12/02 21:24:36;;;;;;;52.92;19.77;;;;;;;-144.32;100.00;68061.97;10478290;28;20504;-87
2022/12/02 21:29:36;;;;;;;53.83;22.73;;;;;;;-144.32;100.00;68061.97;10479251;28;20033;-78
2022/12/02 21:34:37;;;;;;;59.08;23.10;;;;;;;-144.32;100.00;68061.97;10492217;28;20041;-90
2022/12/02 21:39:38;;;;;;;57.03;23.10;;;;;;;-144.32;100.00;68061.97;10487040;28;20144;-86
2022/12/02 21:44:39;;;;;;;65.90;24.23;;;;;;;-144.32;100.00;68061.97;10614907;22;20029;-80
2022/12/02 21:55:07;;;;;;;67.28;24.77;;;;;;;-144.32;100.00;68061.97;11209024;22;20058;-80
2022/12/02 22:05:32;;;;;;;56.93;23.53;;;;;;;-144.32;100.00;68061.97;10929014;22;20426;-80
2022/12/02 22:26:53;;;;;;;43.97;19.95;;;;;;;-144.32;100.00;68061.97;10426837;28;20046;-88
2022/12/02 22:31:54;;;;;;;52.90;21.17;;;;;;;-144.32;100.00;68061.97;10388288;28;20053;-89
2022/12/02 22:36:54;;;;;;;49.72;20.92;;;;;;;-144.32;100.00;68061.97;10435197;28;20069;-89
2022/12/02 22:41:55;;;;;;;45.65;19.50;;;;;;;-144.32;100.00;68061.97;10381649;28;20042;-86
2022/12/02 22:46:55;;;;;;;45.85;20.10;;;;;;;-144.32;100.00;68061.97;10405778;28;20060;-85